Farmington River @ Unionville, Ct

Farmington River at Unionville
 Total Drainage Area: 378 sq. miles 
 Drainage Area Controlled by Corps Dams: 139 sq. miles (37%) 
 Warning Flow/Stage: 3,770 cfs / 9.0 feet 
 Flood Flow/Stage: 9,130 cfs / 12.0 feet 
Date Time
(Eastern)
Stage
(ft)
Flow
(cfs)
CSM
May-28 12:30 pm 5.60 487 1.3
May-28 11:30 am 5.62 497 1.3
May-28 10:30 am 5.64 507 1.3
May-28 09:30 am 5.69 532 1.4
May-28 08:30 am 5.70 537 1.4
May-28 07:30 am 5.59 482 1.3
May-28 06:30 am 5.52 449 1.2
May-28 05:30 am 5.48 431 1.1
May-28 04:30 am 5.41 400 1.1
May-28 03:30 am 5.38 387 1.0
May-28 02:30 am 5.26 339 .9
May-28 01:30 am 5.25 336 .9
May-28 12:30 am 5.26 339 .9
May-27 11:30 pm 5.26 339 .9
May-27 10:30 pm 5.26 339 .9
May-27 09:30 pm 5.26 339 .9
May-27 08:30 pm 5.26 339 .9
May-27 07:30 pm 5.27 343 .9
May-27 06:30 pm 5.26 339 .9
May-27 05:30 pm 5.25 336 .9
May-27 04:30 pm 5.24 332 .9
May-27 03:30 pm 5.22 324 .9
May-27 02:30 pm 5.21 321 .9
May-27 01:30 pm 5.20 317 .8
May-27 12:30 pm 5.20 317 .8
Report Generated May 28, 2022 05:33 pm